Terminal Aerodrome Forecast
Issued by NWS

Home | Current Version | Previous Version | Text Only | Print | Product List | Glossary On
Versions: 1 2 3 4 5 6 7 8 9 10 11 12 13 14 15 16 17 18
528
FTUS43 KICT 161130
TAFHUT
TAF
KHUT 161130Z 1612/1712 01009KT 4SM -RA BR OVC003
      TEMPO 1612/1614 3/4SM RA BR OVC002
     FM161600 36011KT P6SM OVC006
     FM161900 32012KT P6SM OVC008
     FM162100 32013KT P6SM OVC012=

USA.gov is the U.S. government's official web portal to all federal, state and local government web resources and services.